< < Back
Terminal Aerodrome Forecast


Current Version              Previous Versions:   1  2  3  4  5  6  7  8  9  

Terminal Aerodrome Forecast

824
FTUS44 KBMX 220500
TAFTCL
TAF
KTCL 220534Z 2206/2306 00000KT P6SM SKC
     FM221500 27005KT P6SM SCT050=

Latest METAR

201
SAUS70 KWBC 230500 RRE
MTRTCL
METAR KTCL 230453Z AUTO 00000KT 9SM CLR 26/23 A3001 RMK AO2 SLP161
T02610233


USA.gov is the U.S. government's official web portal to all federal, state and local government web resources and services.